createdAt,value
2018-08-17T00:00:08.090Z,999.3
2018-08-17T00:01:08.827Z,999.2
2018-08-17T00:02:09.545Z,999.2
2018-08-17T00:03:10.284Z,999.2
2018-08-17T00:04:11.015Z,999.2
2018-08-17T00:05:11.755Z,999.2
2018-08-17T00:06:12.500Z,999.2
2018-08-17T00:07:13.470Z,999.2
2018-08-17T00:08:14.191Z,999.2
2018-08-17T00:09:15.053Z,999.2
2018-08-17T00:10:16.019Z,999.2
2018-08-17T00:11:16.836Z,999.2
2018-08-17T00:12:17.827Z,999.2
2018-08-17T00:13:18.547Z,999.2
2018-08-17T00:14:19.365Z,999.1
2018-08-17T00:15:20.193Z,999.2
2018-08-17T00:16:21.180Z,999.2
2018-08-17T00:17:21.890Z,999.1
2018-08-17T00:18:22.628Z,999.2
2018-08-17T00:19:23.359Z,999.1
2018-08-17T00:20:24.135Z,999.1
2018-08-17T00:21:24.853Z,999.1
2018-08-17T00:22:25.582Z,999.1
2018-08-17T00:23:26.322Z,999.1
2018-08-17T00:24:27.049Z,999.1
2018-08-17T00:25:27.824Z,999.1
2018-08-17T00:26:28.844Z,999.1
2018-08-17T00:27:29.566Z,999.1
2018-08-17T00:28:30.355Z,999.1
2018-08-17T00:29:31.136Z,999.1
2018-08-17T00:30:31.865Z,999.1
2018-08-17T00:31:32.859Z,999.1
2018-08-17T00:32:33.577Z,999.1
2018-08-17T00:33:34.383Z,999.1
2018-08-17T00:35:50.746Z,999.0
2018-08-17T00:36:51.516Z,999.1
2018-08-17T00:39:07.805Z,999.1
2018-08-17T00:40:08.593Z,999.1
2018-08-17T00:41:09.376Z,999.1
2018-08-17T00:42:10.156Z,999.1
2018-08-17T00:43:10.877Z,999.1
2018-08-17T00:44:11.600Z,999.1
2018-08-17T00:45:12.322Z,999.1
2018-08-17T00:46:13.048Z,999.1
2018-08-17T00:47:13.797Z,999.0
2018-08-17T00:48:14.520Z,999.1
2018-08-17T00:49:15.267Z,999.1
2018-08-17T00:50:15.998Z,999.1
2018-08-17T00:51:16.728Z,999.1
2018-08-17T00:52:17.455Z,999.1
2018-08-17T00:53:18.223Z,999.1
2018-08-17T00:54:18.953Z,999.1
2018-08-17T00:55:19.720Z,999.1
2018-08-17T00:56:20.441Z,999.1
2018-08-17T00:57:21.165Z,999.1
2018-08-17T00:58:21.947Z,999.2
2018-08-17T00:59:22.669Z,999.2
2018-08-17T01:00:23.399Z,999.2
2018-08-17T01:01:24.379Z,999.2
2018-08-17T01:02:25.094Z,999.2
2018-08-17T01:03:25.822Z,999.2
2018-08-17T01:04:26.543Z,999.2
2018-08-17T01:05:27.325Z,999.2
2018-08-17T01:06:28.057Z,999.2
2018-08-17T01:07:28.796Z,999.2
2018-08-17T01:08:29.527Z,999.2
2018-08-17T01:09:30.245Z,999.2
2018-08-17T01:10:30.977Z,999.2
2018-08-17T01:11:31.703Z,999.1
2018-08-17T01:12:32.981Z,999.1
2018-08-17T01:14:16.447Z,999.1
2018-08-17T01:15:17.246Z,999.1
2018-08-17T01:16:18.025Z,999.1
2018-08-17T01:17:18.758Z,999.1
2018-08-17T01:18:19.827Z,999.1
2018-08-17T01:19:20.682Z,999.1
2018-08-17T01:20:21.671Z,999.1
2018-08-17T01:22:38.041Z,999.1
2018-08-17T01:24:54.632Z,999.0
2018-08-17T01:25:55.365Z,999.1
2018-08-17T01:26:56.118Z,999.0
2018-08-17T01:27:56.948Z,999.1
2018-08-17T01:30:13.324Z,999.0
2018-08-17T01:31:14.430Z,999.0
2018-08-17T01:32:15.404Z,999.0
2018-08-17T01:33:16.144Z,999.0
2018-08-17T01:35:03.990Z,999.0
2018-08-17T01:37:20.641Z,999.0
2018-08-17T01:38:21.369Z,999.0
2018-08-17T01:40:08.963Z,999.0
2018-08-17T01:41:09.813Z,999.0
2018-08-17T01:43:26.465Z,999.0
2018-08-17T01:44:27.435Z,999.0
2018-08-17T01:45:54.504Z,999.0
2018-08-17T01:46:55.624Z,998.9
2018-08-17T01:47:56.475Z,998.9
2018-08-17T01:48:57.467Z,998.9
2018-08-17T01:49:58.479Z,998.9
2018-08-17T01:53:05.520Z,998.9
2018-08-17T01:54:06.640Z,998.9
2018-08-17T01:55:07.657Z,998.9
2018-08-17T01:56:08.474Z,998.9
2018-08-17T01:57:09.279Z,998.9
2018-08-17T01:58:10.296Z,998.9
2018-08-17T01:59:11.400Z,998.9
2018-08-17T02:00:12.185Z,998.9
2018-08-17T02:02:28.811Z,998.9
2018-08-17T02:03:29.636Z,998.9
2018-08-17T02:04:30.470Z,998.9
2018-08-17T02:05:31.534Z,999.0
2018-08-17T02:06:32.309Z,998.9
2018-08-17T02:07:33.165Z,999.0
2018-08-17T02:08:34.053Z,998.9
2018-08-17T02:09:34.842Z,999.0
2018-08-17T02:10:35.678Z,998.9
2018-08-17T02:13:06.746Z,999.0
2018-08-17T02:14:07.561Z,998.9
2018-08-17T02:15:51.722Z,999.0
2018-08-17T02:17:35.552Z,999.0
2018-08-17T02:18:36.673Z,999.0
2018-08-17T02:19:37.762Z,998.9
2018-08-17T02:21:54.366Z,999.0
2018-08-17T02:22:55.351Z,999.0
2018-08-17T02:23:56.188Z,999.0
2018-08-17T02:24:57.016Z,999.0
2018-08-17T02:26:48.527Z,999.0
2018-08-17T02:29:04.977Z,999.0
2018-08-17T02:32:22.943Z,999.0
2018-08-17T02:34:10.522Z,999.0
2018-08-17T02:35:11.284Z,999.0
2018-08-17T02:36:13.351Z,999.0
2018-08-17T02:37:14.370Z,999.0
2018-08-17T02:38:15.726Z,999.0
2018-08-17T02:40:11.184Z,999.0
2018-08-17T02:42:45.414Z,999.0
2018-08-17T02:45:50.767Z,999.1
2018-08-17T02:46:53.301Z,999.1
2018-08-17T02:50:26.662Z,999.2
2018-08-17T02:51:28.522Z,999.2
2018-08-17T02:52:29.732Z,999.2
2018-08-17T02:55:29.406Z,999.2
2018-08-17T02:57:17.987Z,999.2
2018-08-17T02:59:17.744Z,999.2
2018-08-17T03:00:18.785Z,999.2
2018-08-17T03:02:14.291Z,999.3
2018-08-17T03:03:15.082Z,999.2
2018-08-17T03:04:15.951Z,999.2
2018-08-17T03:07:10.161Z,999.2
2018-08-17T03:08:12.445Z,999.2
2018-08-17T03:09:56.509Z,999.2
2018-08-17T03:10:57.659Z,999.2
2018-08-17T03:12:45.154Z,999.2
2018-08-17T03:16:36.440Z,999.2
2018-08-17T03:17:37.506Z,999.3
2018-08-17T03:18:38.888Z,999.3
2018-08-17T03:20:34.444Z,999.3
2018-08-17T03:22:21.962Z,999.3
2018-08-17T03:23:22.780Z,999.2
2018-08-17T03:24:24.852Z,999.3
2018-08-17T03:25:25.883Z,999.2
2018-08-17T03:26:26.955Z,999.2
2018-08-17T03:28:11.386Z,999.3
2018-08-17T03:29:12.200Z,999.3
2018-08-17T03:33:16.521Z,999.3
2018-08-17T03:34:17.283Z,999.3
2018-08-17T03:36:59.469Z,999.4
2018-08-17T03:38:44.345Z,999.4
2018-08-17T03:40:47.268Z,999.5
2018-08-17T03:42:34.829Z,999.5
2018-08-17T03:43:36.382Z,999.5
2018-08-17T03:44:37.193Z,999.5
2018-08-17T03:45:38.558Z,999.5
2018-08-17T03:46:39.614Z,999.5
2018-08-17T03:48:23.208Z,999.5
2018-08-17T03:49:24.718Z,999.5
2018-08-17T03:50:25.530Z,999.5
2018-08-17T03:51:26.268Z,999.5
2018-08-17T03:52:27.007Z,999.5
2018-08-17T03:53:27.778Z,999.5
2018-08-17T03:54:28.526Z,999.5
2018-08-17T03:55:29.266Z,999.5
2018-08-17T03:56:30.007Z,999.5
2018-08-17T03:57:30.741Z,999.6
2018-08-17T03:58:31.481Z,999.5
2018-08-17T03:59:32.213Z,999.5
2018-08-17T04:00:32.990Z,999.6
2018-08-17T04:01:33.746Z,999.6
2018-08-17T04:02:34.485Z,999.6
2018-08-17T04:03:35.204Z,999.7
2018-08-17T04:04:35.917Z,999.7
2018-08-17T04:05:36.646Z,999.7
2018-08-17T04:06:37.401Z,999.7
2018-08-17T04:07:38.129Z,999.8
2018-08-17T04:08:38.850Z,999.8
2018-08-17T04:09:39.574Z,999.8
2018-08-17T04:10:40.900Z,999.9
2018-08-17T04:11:41.629Z,999.9
2018-08-17T04:12:42.360Z,999.9
2018-08-17T04:13:43.099Z,1000.0
2018-08-17T04:14:43.823Z,1000.0
2018-08-17T04:15:44.857Z,1000.0
2018-08-17T04:16:45.580Z,1000.0
2018-08-17T04:17:46.302Z,1000.0
2018-08-17T04:18:47.044Z,1000.1
2018-08-17T04:19:47.773Z,1000.1
2018-08-17T04:20:49.113Z,1000.0
2018-08-17T04:21:49.836Z,1000.0
2018-08-17T04:22:50.818Z,1000.0
2018-08-17T04:23:51.600Z,1000.0
2018-08-17T04:24:52.296Z,1000.0
2018-08-17T04:25:53.074Z,1000.0
2018-08-17T04:26:53.817Z,1000.0
2018-08-17T04:27:54.571Z,1000.1
2018-08-17T04:28:55.295Z,1000.1
2018-08-17T04:29:56.062Z,1000.1
2018-08-17T04:30:56.802Z,1000.2
2018-08-17T04:31:57.524Z,1000.2
2018-08-17T04:32:58.245Z,1000.1
2018-08-17T04:33:58.972Z,1000.2
2018-08-17T04:34:59.718Z,1000.2
2018-08-17T04:36:00.468Z,1000.2
2018-08-17T04:37:01.204Z,1000.2
2018-08-17T04:38:01.943Z,1000.3
2018-08-17T04:39:02.667Z,1000.2
2018-08-17T04:40:03.411Z,1000.3
2018-08-17T04:41:04.409Z,1000.3
2018-08-17T04:42:05.406Z,1000.3
2018-08-17T04:43:06.201Z,1000.3
2018-08-17T04:44:07.014Z,1000.4
2018-08-17T04:45:07.780Z,1000.4
2018-08-17T04:46:08.666Z,1000.3
2018-08-17T04:47:09.589Z,1000.3
2018-08-17T04:48:10.698Z,1000.3
2018-08-17T04:49:11.473Z,1000.3
2018-08-17T04:50:12.210Z,1000.3
2018-08-17T04:51:13.034Z,1000.4
2018-08-17T04:52:13.776Z,1000.4
2018-08-17T04:53:14.711Z,1000.4
2018-08-17T04:54:15.591Z,1000.4
2018-08-17T04:55:16.376Z,1000.4
2018-08-17T04:56:17.223Z,1000.3
2018-08-17T04:57:17.977Z,1000.3
2018-08-17T04:58:18.825Z,1000.3
2018-08-17T04:59:19.609Z,1000.3
2018-08-17T05:00:20.395Z,1000.3
2018-08-17T05:01:21.144Z,1000.3
2018-08-17T05:02:21.924Z,1000.3
2018-08-17T05:03:22.772Z,1000.3
2018-08-17T05:04:23.701Z,1000.3
2018-08-17T05:05:24.611Z,1000.3
2018-08-17T05:06:25.410Z,1000.4
2018-08-17T05:07:26.240Z,1000.4
2018-08-17T05:08:27.034Z,1000.4
2018-08-17T05:09:27.839Z,1000.4
2018-08-17T05:10:28.608Z,1000.3
2018-08-17T05:11:29.361Z,1000.3
2018-08-17T05:12:30.221Z,1000.3
2018-08-17T05:13:31.093Z,1000.3
2018-08-17T05:14:32.082Z,1000.4
2018-08-17T05:15:33.071Z,1000.3
2018-08-17T05:16:33.793Z,1000.4
2018-08-17T05:17:34.523Z,1000.4
2018-08-17T05:18:35.257Z,1000.5
2018-08-17T05:19:35.989Z,1000.5
2018-08-17T05:20:36.731Z,1000.6
2018-08-17T05:21:37.549Z,1000.6
2018-08-17T05:22:38.201Z,1000.6
2018-08-17T05:23:38.951Z,1000.7
2018-08-17T05:24:39.679Z,1000.7
2018-08-17T05:25:40.424Z,1000.7
2018-08-17T05:26:41.179Z,1000.7
2018-08-17T05:27:41.920Z,1000.8
2018-08-17T05:28:42.641Z,1000.8
2018-08-17T05:29:43.367Z,1000.8
2018-08-17T05:30:44.381Z,1000.8
2018-08-17T05:31:45.116Z,1000.8
2018-08-17T05:32:46.102Z,1000.8
2018-08-17T05:33:46.884Z,1000.8
2018-08-17T05:34:47.611Z,1000.8
2018-08-17T05:35:48.374Z,1000.8
2018-08-17T05:36:49.062Z,1000.8
2018-08-17T05:37:49.802Z,1000.8
2018-08-17T05:38:50.537Z,1000.8
2018-08-17T05:39:51.267Z,1000.8
2018-08-17T05:40:52.050Z,1000.8
2018-08-17T05:41:52.779Z,1000.8
2018-08-17T05:42:53.508Z,1000.8
2018-08-17T05:43:54.240Z,1000.8
2018-08-17T05:44:54.965Z,1000.8
2018-08-17T05:45:55.687Z,1000.8
2018-08-17T05:46:56.450Z,1000.8
2018-08-17T05:47:57.173Z,1000.8
2018-08-17T05:48:57.912Z,1000.8
2018-08-17T05:49:58.649Z,1000.8
2018-08-17T05:50:59.434Z,1000.8
2018-08-17T05:52:00.426Z,1000.8
2018-08-17T05:53:01.149Z,1000.8
2018-08-17T05:54:02.385Z,1000.8
2018-08-17T05:55:03.108Z,1000.8
2018-08-17T05:56:04.156Z,1000.8
2018-08-17T05:57:04.890Z,1000.8
2018-08-17T05:58:05.616Z,1000.8
2018-08-17T05:59:06.344Z,1000.8
2018-08-17T06:00:07.079Z,1000.8
2018-08-17T06:01:07.813Z,1000.8
2018-08-17T06:02:08.886Z,1000.8
2018-08-17T06:03:09.646Z,1000.8
2018-08-17T06:04:10.377Z,1000.8
2018-08-17T06:05:11.109Z,1000.8
2018-08-17T06:06:11.843Z,1000.8
2018-08-17T06:07:12.575Z,1000.8
2018-08-17T06:08:13.366Z,1000.8
2018-08-17T06:09:14.097Z,1000.8
2018-08-17T06:10:14.834Z,1000.9
2018-08-17T06:11:15.644Z,1000.8
2018-08-17T06:12:16.325Z,1000.9
2018-08-17T06:13:17.107Z,1000.9
2018-08-17T06:14:17.832Z,1000.9
2018-08-17T06:15:18.566Z,1000.9
2018-08-17T06:16:19.296Z,1000.9
2018-08-17T06:17:20.044Z,1001.0
2018-08-17T06:18:20.779Z,1001.0
2018-08-17T06:19:21.624Z,1001.0
2018-08-17T06:20:22.286Z,1001.0
2018-08-17T06:21:23.033Z,1001.0
2018-08-17T06:22:24.027Z,1001.0
2018-08-17T06:23:24.751Z,1001.0
2018-08-17T06:24:25.506Z,1001.0
2018-08-17T06:25:26.235Z,1001.0
2018-08-17T06:26:26.969Z,1001.0
2018-08-17T06:27:27.705Z,1001.0
2018-08-17T06:28:28.789Z,1001.0
2018-08-17T06:29:29.529Z,1001.0
2018-08-17T06:30:30.267Z,1001.1
2018-08-17T06:31:31.005Z,1001.1
2018-08-17T06:32:31.734Z,1001.1
2018-08-17T06:33:32.538Z,1001.1
2018-08-17T06:34:33.270Z,1001.1
2018-08-17T06:35:34.003Z,1001.1
2018-08-17T06:36:34.729Z,1001.1
2018-08-17T06:37:35.720Z,1001.1
2018-08-17T06:38:37.201Z,1001.1
2018-08-17T06:39:37.930Z,1001.1
2018-08-17T06:40:38.703Z,1001.1
2018-08-17T06:41:39.457Z,1001.0
2018-08-17T06:42:40.186Z,1001.0
2018-08-17T06:43:41.208Z,1001.0
2018-08-17T06:44:42.198Z,1001.0
2018-08-17T06:45:42.931Z,1001.1
2018-08-17T06:46:43.668Z,1001.1
2018-08-17T06:47:44.405Z,1001.1
2018-08-17T06:48:45.129Z,1001.1
2018-08-17T06:49:46.101Z,1001.1
2018-08-17T06:50:46.939Z,1001.1
2018-08-17T06:51:47.546Z,1001.1
2018-08-17T06:52:48.286Z,1001.2
2018-08-17T06:53:49.029Z,1001.2
2018-08-17T06:54:49.772Z,1001.1
2018-08-17T06:55:50.500Z,1001.2
2018-08-17T06:56:51.237Z,1001.2
2018-08-17T06:57:51.979Z,1001.3
2018-08-17T06:58:52.709Z,1001.3
2018-08-17T06:59:53.498Z,1001.3
2018-08-17T07:00:54.235Z,1001.3
2018-08-17T07:01:54.966Z,1001.3
2018-08-17T07:02:55.698Z,1001.4
2018-08-17T07:03:56.437Z,1001.3
2018-08-17T07:04:57.225Z,1001.3
2018-08-17T07:05:57.954Z,1001.4
2018-08-17T07:06:58.688Z,1001.3
2018-08-17T07:07:59.426Z,1001.3
2018-08-17T07:09:00.166Z,1001.3
2018-08-17T07:10:00.889Z,1001.3
2018-08-17T07:11:01.630Z,1001.4
2018-08-17T07:12:02.369Z,1001.3
2018-08-17T07:13:03.094Z,1001.3
2018-08-17T07:14:04.074Z,1001.4
2018-08-17T07:15:04.813Z,1001.4
2018-08-17T07:16:05.560Z,1001.3
2018-08-17T07:17:06.296Z,1001.3
2018-08-17T07:18:07.267Z,1001.4
2018-08-17T07:19:08.006Z,1001.3
2018-08-17T07:20:08.740Z,1001.3
2018-08-17T07:21:09.543Z,1001.3
2018-08-17T07:22:10.375Z,1001.3
2018-08-17T07:23:11.105Z,1001.3
2018-08-17T07:24:11.837Z,1001.3
2018-08-17T07:25:12.572Z,1001.3
2018-08-17T07:26:13.297Z,1001.3
2018-08-17T07:27:14.040Z,1001.4
2018-08-17T07:28:14.820Z,1001.3
2018-08-17T07:29:15.501Z,1001.4
2018-08-17T07:30:16.232Z,1001.4
2018-08-17T07:31:17.931Z,1001.4
2018-08-17T07:32:19.149Z,1001.4
2018-08-17T07:33:19.884Z,1001.4
2018-08-17T07:34:20.624Z,1001.4
2018-08-17T07:35:21.353Z,1001.4
2018-08-17T07:36:22.143Z,1001.4
2018-08-17T07:37:22.876Z,1001.4
2018-08-17T07:38:23.620Z,1001.4
2018-08-17T07:39:24.347Z,1001.5
2018-08-17T07:40:25.086Z,1001.5
2018-08-17T07:41:25.823Z,1001.5
2018-08-17T07:42:26.560Z,1001.5
2018-08-17T07:43:27.301Z,1001.5
2018-08-17T07:44:28.040Z,1001.6
2018-08-17T07:45:28.770Z,1001.6
2018-08-17T07:46:29.513Z,1001.6
2018-08-17T07:47:30.257Z,1001.6
2018-08-17T07:48:30.995Z,1001.7
2018-08-17T07:49:31.727Z,1001.7
2018-08-17T07:50:32.465Z,1001.7
2018-08-17T07:51:33.210Z,1001.7
2018-08-17T07:52:33.945Z,1001.8
2018-08-17T07:53:35.034Z,1001.8
2018-08-17T07:54:35.762Z,1001.8
2018-08-17T07:55:36.496Z,1001.9
2018-08-17T07:56:37.233Z,1001.9
2018-08-17T07:57:37.969Z,1001.9
2018-08-17T07:58:38.705Z,1001.9
2018-08-17T07:59:39.437Z,1002.0
2018-08-17T08:00:40.169Z,1002.0
2018-08-17T08:01:40.908Z,1002.0
2018-08-17T08:02:41.636Z,1002.0
2018-08-17T08:03:42.711Z,1002.0
2018-08-17T08:04:43.447Z,1002.0
2018-08-17T08:05:44.185Z,1002.0
2018-08-17T08:06:44.912Z,1002.0
2018-08-17T08:07:45.890Z,1002.0
2018-08-17T08:08:46.682Z,1002.0
2018-08-17T08:09:47.423Z,1002.0
2018-08-17T08:10:48.403Z,1002.0
2018-08-17T08:11:49.139Z,1002.1
2018-08-17T08:12:49.866Z,1002.1
2018-08-17T08:13:50.723Z,1002.1
2018-08-17T08:14:51.651Z,1002.0
2018-08-17T08:15:52.371Z,1002.0
2018-08-17T08:16:53.115Z,1002.0
2018-08-17T08:17:53.845Z,1002.0
2018-08-17T08:18:54.826Z,1002.1
2018-08-17T08:19:55.577Z,1002.1
2018-08-17T08:20:56.316Z,1002.1
2018-08-17T08:21:57.462Z,1002.2
2018-08-17T08:22:58.193Z,1002.2
2018-08-17T08:23:58.923Z,1002.2
2018-08-17T08:24:59.672Z,1002.2
2018-08-17T08:26:00.443Z,1002.1
2018-08-17T08:27:01.513Z,1002.1
2018-08-17T08:28:02.428Z,1002.2
2018-08-17T08:29:03.424Z,1002.2
2018-08-17T08:30:04.149Z,1002.2
2018-08-17T08:31:05.133Z,1002.2
2018-08-17T08:32:05.883Z,1002.2
2018-08-17T08:33:06.608Z,1002.3
2018-08-17T08:34:07.340Z,1002.3
2018-08-17T08:35:08.079Z,1002.3
2018-08-17T08:36:09.026Z,1002.3
2018-08-17T08:37:09.908Z,1002.3
2018-08-17T08:38:10.698Z,1002.3
2018-08-17T08:39:11.457Z,1002.3
2018-08-17T08:40:12.844Z,1002.3
2018-08-17T08:41:13.819Z,1002.3
2018-08-17T08:42:14.916Z,1002.3
2018-08-17T08:43:15.656Z,1002.3
2018-08-17T08:44:16.373Z,1002.2
2018-08-17T08:45:17.112Z,1002.3
2018-08-17T08:46:17.839Z,1002.3
2018-08-17T08:47:18.580Z,1002.3
2018-08-17T08:48:19.360Z,1002.4
2018-08-17T08:49:20.132Z,1002.4
2018-08-17T08:50:20.866Z,1002.4
2018-08-17T08:51:21.590Z,1002.5
2018-08-17T08:52:22.392Z,1002.5
2018-08-17T08:53:23.119Z,1002.5
2018-08-17T08:54:23.843Z,1002.5
2018-08-17T08:55:24.596Z,1002.5
2018-08-17T08:56:25.320Z,1002.5
2018-08-17T08:57:26.328Z,1002.6
2018-08-17T08:58:27.212Z,1002.5
2018-08-17T08:59:28.067Z,1002.6
2018-08-17T09:00:28.807Z,1002.5
2018-08-17T09:01:29.527Z,1002.6
2018-08-17T09:02:30.327Z,1002.5
2018-08-17T09:03:31.080Z,1002.5
2018-08-17T09:04:31.810Z,1002.5
2018-08-17T09:05:32.542Z,1002.5
2018-08-17T09:06:33.540Z,1002.5
2018-08-17T09:07:34.463Z,1002.4
2018-08-17T09:08:35.283Z,1002.4
2018-08-17T09:09:36.399Z,1002.4
2018-08-17T09:10:38.044Z,1002.4
2018-08-17T09:11:39.024Z,1002.4
2018-08-17T09:12:40.003Z,1002.4
2018-08-17T09:13:40.781Z,1002.4
2018-08-17T09:14:41.474Z,1002.4
2018-08-17T09:15:42.212Z,1002.4
2018-08-17T09:16:42.975Z,1002.3
2018-08-17T09:17:43.705Z,1002.3
2018-08-17T09:18:44.686Z,1002.3
2018-08-17T09:19:45.409Z,1002.3
2018-08-17T09:20:46.419Z,1002.2
2018-08-17T09:21:47.169Z,1002.2
2018-08-17T09:22:47.895Z,1002.2
2018-08-17T09:23:48.639Z,1002.1
2018-08-17T09:24:49.366Z,1002.2
2018-08-17T09:25:50.096Z,1002.2
2018-08-17T09:26:50.836Z,1002.2
2018-08-17T09:27:51.817Z,1002.1
2018-08-17T09:28:52.538Z,1002.2
2018-08-17T09:29:53.261Z,1002.1
2018-08-17T09:30:54.003Z,1002.1
2018-08-17T09:31:54.745Z,1002.1
2018-08-17T09:32:55.488Z,1002.1
2018-08-17T09:33:56.218Z,1002.2
2018-08-17T09:34:56.951Z,1002.1
2018-08-17T09:35:57.697Z,1002.1
2018-08-17T09:36:58.432Z,1002.1
2018-08-17T09:37:59.173Z,1002.1
2018-08-17T09:38:59.890Z,1002.1
2018-08-17T09:40:00.624Z,1002.1
2018-08-17T09:41:01.359Z,1002.1
2018-08-17T09:42:02.137Z,1002.1
2018-08-17T09:43:02.823Z,1002.1
2018-08-17T09:44:03.569Z,1002.1
2018-08-17T09:45:04.306Z,1002.1
2018-08-17T09:46:05.035Z,1002.0
2018-08-17T09:47:06.022Z,1002.0
2018-08-17T09:48:06.756Z,1001.9
2018-08-17T09:49:07.485Z,1001.9
2018-08-17T09:50:08.222Z,1001.8
2018-08-17T09:51:08.966Z,1001.8
2018-08-17T09:52:09.711Z,1001.7
2018-08-17T09:53:10.499Z,1001.8
2018-08-17T09:54:11.226Z,1001.8
2018-08-17T09:55:12.206Z,1001.7
2018-08-17T09:56:12.932Z,1001.7
2018-08-17T09:57:13.664Z,1001.7
2018-08-17T09:58:14.395Z,1001.6
2018-08-17T09:59:15.177Z,1001.6
2018-08-17T10:00:15.909Z,1001.6
2018-08-17T10:01:16.633Z,1001.6
2018-08-17T10:02:17.378Z,1001.6
2018-08-17T10:03:18.694Z,1001.6
2018-08-17T10:04:19.522Z,1001.7
2018-08-17T10:05:20.264Z,1001.6
2018-08-17T10:06:21.017Z,1001.7
2018-08-17T10:07:21.754Z,1001.6
2018-08-17T10:08:22.506Z,1001.6
2018-08-17T10:09:23.596Z,1001.6
2018-08-17T10:10:24.323Z,1001.6
2018-08-17T10:11:25.050Z,1001.7
2018-08-17T10:12:25.777Z,1001.8
2018-08-17T10:13:26.514Z,1001.7
2018-08-17T10:14:27.242Z,1001.8
2018-08-17T10:15:27.992Z,1001.7
2018-08-17T10:16:28.730Z,1001.7
2018-08-17T10:17:29.459Z,1001.7
2018-08-17T10:18:30.196Z,1001.8
2018-08-17T10:19:30.940Z,1001.8
2018-08-17T10:20:31.658Z,1001.8
2018-08-17T10:21:32.641Z,1001.8
2018-08-17T10:22:33.135Z,1001.8
2018-08-17T10:23:33.914Z,1001.9
2018-08-17T10:24:34.663Z,1001.9
2018-08-17T10:25:35.387Z,1001.9
2018-08-17T10:26:36.114Z,1001.8
2018-08-17T10:27:36.848Z,1001.8
2018-08-17T10:28:37.596Z,1001.8
2018-08-17T10:29:38.317Z,1001.8
2018-08-17T10:30:39.053Z,1001.8
2018-08-17T10:31:39.793Z,1001.8
2018-08-17T10:32:40.531Z,1001.8
2018-08-17T10:33:41.264Z,1001.8
2018-08-17T10:34:42.011Z,1001.8
2018-08-17T10:35:42.790Z,1001.8
2018-08-17T10:36:43.525Z,1001.8
2018-08-17T10:37:44.256Z,1001.8
2018-08-17T10:38:45.320Z,1001.8
2018-08-17T10:39:46.064Z,1001.8
2018-08-17T10:40:46.913Z,1001.8
2018-08-17T10:41:47.607Z,1001.8
2018-08-17T10:42:48.363Z,1001.8
2018-08-17T10:43:49.102Z,1001.9
2018-08-17T10:44:50.077Z,1001.9
2018-08-17T10:45:50.856Z,1001.9
2018-08-17T10:46:51.581Z,1001.9
2018-08-17T10:47:52.317Z,1002.0
2018-08-17T10:48:53.085Z,1001.9
2018-08-17T10:49:53.780Z,1002.0
2018-08-17T10:50:54.567Z,1002.0
2018-08-17T10:51:55.298Z,1002.0
2018-08-17T10:52:56.050Z,1002.0
2018-08-17T10:53:56.769Z,1002.0
2018-08-17T10:54:57.507Z,1002.0
2018-08-17T10:55:58.237Z,1002.0
2018-08-17T10:56:58.971Z,1002.1
2018-08-17T10:57:59.711Z,1002.1
2018-08-17T10:59:00.691Z,1002.1
2018-08-17T11:00:01.428Z,1002.1
2018-08-17T11:01:02.159Z,1002.1
2018-08-17T11:02:02.892Z,1002.1
2018-08-17T11:03:03.972Z,1002.1
2018-08-17T11:04:04.867Z,1002.1
2018-08-17T11:05:05.593Z,1002.1
2018-08-17T11:06:06.562Z,1002.1
2018-08-17T11:07:07.299Z,1002.1
2018-08-17T11:08:08.440Z,1002.1
2018-08-17T11:09:09.897Z,1002.1
2018-08-17T11:10:10.864Z,1002.2
2018-08-17T11:11:11.623Z,1002.1
2018-08-17T11:12:12.361Z,1002.2
2018-08-17T11:13:13.107Z,1002.2
2018-08-17T11:14:14.394Z,1002.2
2018-08-17T11:15:15.229Z,1002.2
2018-08-17T11:16:16.252Z,1002.2
2018-08-17T11:17:17.057Z,1002.1
2018-08-17T11:18:17.786Z,1002.2
2018-08-17T11:19:18.778Z,1002.1
2018-08-17T11:20:19.520Z,1002.1
2018-08-17T11:21:20.255Z,1002.1
2018-08-17T11:22:21.039Z,1002.1
2018-08-17T11:23:21.775Z,1002.1
2018-08-17T11:24:22.511Z,1002.1
2018-08-17T11:25:23.234Z,1002.1
2018-08-17T11:26:23.980Z,1002.1
2018-08-17T11:27:24.712Z,1002.1
2018-08-17T11:28:25.447Z,1002.2
2018-08-17T11:29:26.174Z,1002.2
2018-08-17T11:30:26.923Z,1002.1
2018-08-17T11:31:27.649Z,1002.1
2018-08-17T11:32:28.390Z,1002.1
2018-08-17T11:33:29.142Z,1002.2
2018-08-17T11:34:29.950Z,1002.1
2018-08-17T11:35:30.605Z,1002.1
2018-08-17T11:36:31.360Z,1002.2
2018-08-17T11:37:32.101Z,1002.1
2018-08-17T11:38:32.837Z,1002.2
2018-08-17T11:39:33.569Z,1002.3
2018-08-17T11:40:34.305Z,1002.2
2018-08-17T11:41:35.646Z,1002.2
2018-08-17T11:42:36.341Z,1002.2
2018-08-17T11:43:37.079Z,1002.3
2018-08-17T11:44:37.829Z,1002.2
2018-08-17T11:45:38.594Z,1002.2
2018-08-17T11:46:39.324Z,1002.3
2018-08-17T11:47:40.081Z,1002.3
2018-08-17T11:48:40.808Z,1002.4
2018-08-17T11:49:41.573Z,1002.3
2018-08-17T11:50:42.305Z,1002.3
2018-08-17T11:51:43.291Z,1002.3
2018-08-17T11:52:44.049Z,1002.4
2018-08-17T11:53:44.823Z,1002.4
2018-08-17T11:54:45.516Z,1002.4
2018-08-17T11:55:46.256Z,1002.4
2018-08-17T11:56:46.992Z,1002.4
2018-08-17T11:57:47.721Z,1002.5
2018-08-17T11:58:48.915Z,1002.5
2018-08-17T11:59:49.666Z,1002.5
2018-08-17T12:00:50.394Z,1002.5
2018-08-17T12:01:51.197Z,1002.5
2018-08-17T12:02:51.882Z,1002.5
2018-08-17T12:03:52.857Z,1002.5
2018-08-17T12:04:53.586Z,1002.5
2018-08-17T12:05:54.329Z,1002.5
2018-08-17T12:06:55.084Z,1002.5
2018-08-17T12:07:55.820Z,1002.5
2018-08-17T12:08:56.812Z,1002.5
2018-08-17T12:09:57.540Z,1002.6
2018-08-17T12:10:58.265Z,1002.5
2018-08-17T12:11:58.994Z,1002.6
2018-08-17T12:13:00.044Z,1002.6
2018-08-17T12:14:00.859Z,1002.6
2018-08-17T12:15:01.676Z,1002.6
2018-08-17T12:16:02.415Z,1002.5
2018-08-17T12:17:03.898Z,1002.6
2018-08-17T12:18:05.053Z,1002.6
2018-08-17T12:19:05.777Z,1002.6
2018-08-17T12:20:06.532Z,1002.6
2018-08-17T12:21:07.268Z,1002.6
2018-08-17T12:22:08.011Z,1002.6
2018-08-17T12:23:08.783Z,1002.6
2018-08-17T12:24:09.556Z,1002.5
2018-08-17T12:25:10.337Z,1002.6
2018-08-17T12:26:11.016Z,1002.5
2018-08-17T12:27:11.763Z,1002.5
2018-08-17T12:28:12.805Z,1002.5
2018-08-17T12:29:13.534Z,1002.5
2018-08-17T12:30:14.277Z,1002.5
2018-08-17T12:31:15.012Z,1002.6
2018-08-17T12:32:15.815Z,1002.5
2018-08-17T12:34:32.080Z,1002.6
2018-08-17T12:35:32.814Z,1002.6
2018-08-17T12:36:33.565Z,1002.6
2018-08-17T12:37:34.386Z,1002.6
2018-08-17T12:39:50.885Z,1002.6
2018-08-17T12:40:51.666Z,1002.6
2018-08-17T12:41:52.423Z,1002.6
2018-08-17T12:42:53.171Z,1002.6
2018-08-17T12:43:53.893Z,1002.6
2018-08-17T12:44:54.623Z,1002.6
2018-08-17T12:45:55.610Z,1002.6
2018-08-17T12:46:56.339Z,1002.6
2018-08-17T12:47:57.074Z,1002.6
2018-08-17T12:48:57.816Z,1002.6
2018-08-17T12:49:58.812Z,1002.5
2018-08-17T12:50:59.546Z,1002.6
2018-08-17T12:52:00.633Z,1002.6
2018-08-17T12:53:01.361Z,1002.6
2018-08-17T12:54:02.097Z,1002.5
2018-08-17T12:55:02.825Z,1002.5
2018-08-17T12:56:03.818Z,1002.5
2018-08-17T12:57:04.593Z,1002.5
2018-08-17T12:58:05.344Z,1002.5
2018-08-17T12:59:06.073Z,1002.5
2018-08-17T13:00:06.807Z,1002.5
2018-08-17T13:01:07.555Z,1002.5
2018-08-17T13:02:08.287Z,1002.5
2018-08-17T13:03:09.034Z,1002.5
2018-08-17T13:04:09.761Z,1002.4
2018-08-17T13:05:10.512Z,1002.4
2018-08-17T13:06:11.239Z,1002.5
2018-08-17T13:07:12.231Z,1002.5
2018-08-17T13:08:13.017Z,1002.5
2018-08-17T13:09:13.764Z,1002.5
2018-08-17T13:10:14.528Z,1002.5
2018-08-17T13:11:15.600Z,1002.5
2018-08-17T13:12:16.333Z,1002.5
2018-08-17T13:13:17.317Z,1002.5
2018-08-17T13:14:18.066Z,1002.5
2018-08-17T13:15:18.798Z,1002.6
2018-08-17T13:16:19.532Z,1002.6
2018-08-17T13:17:20.381Z,1002.6
2018-08-17T13:18:21.562Z,1002.6
2018-08-17T13:19:22.465Z,1002.6
2018-08-17T13:20:23.252Z,1002.6
2018-08-17T13:21:23.997Z,1002.6
2018-08-17T13:22:25.244Z,1002.5
2018-08-17T13:23:25.974Z,1002.5
2018-08-17T13:24:26.706Z,1002.5
2018-08-17T13:25:27.438Z,1002.6
2018-08-17T13:26:28.172Z,1002.6
2018-08-17T13:27:28.895Z,1002.6
2018-08-17T13:28:29.628Z,1002.6
2018-08-17T13:29:30.970Z,1002.6
2018-08-17T13:30:31.702Z,1002.6
2018-08-17T13:31:32.446Z,1002.6
2018-08-17T13:32:33.194Z,1002.6
2018-08-17T13:33:33.935Z,1002.6
2018-08-17T13:34:34.667Z,1002.5
2018-08-17T13:35:35.415Z,1002.5
2018-08-17T13:36:36.153Z,1002.5
2018-08-17T13:37:36.895Z,1002.5
2018-08-17T13:38:37.989Z,1002.6
2018-08-17T13:39:38.993Z,1002.6